Time;durP1;ratioP1;P1;durP2;ratioP2;P2;SDS_P1;SDS_P2;PMS_P1;PMS_P2;Temp;Humidity;BMP_temperature;BMP_pressure;BME280_temperature;BME280_humidity;BME280_pressure;Samples;Min_cycle;Max_cycle;Signal;HPM_P1;HPM_P2
2024/03/13 05:43:51;;;;;;;;;;;;;;;1.79;92.36;100305.63;112982;1248;22433;-60
2024/03/13 05:46:22;;;;;;;;;;;;;;;1.78;92.33;100305.93;112835;1242;22376;-59
2024/03/13 05:48:54;;;;;;;;;;;;;;;1.78;92.06;100307.66;112966;1239;22500;-58
2024/03/13 05:51:22;;;;;;;;;;;;;;;1.78;91.68;100308.17;112861;1249;22356;-61
2024/03/13 05:53:51;;;;;;;;;;;;;;;1.80;91.69;100310.83;112853;1248;22480;-52
2024/03/13 05:56:21;;;;;;;;;;;;;;;1.82;91.34;100314.88;112997;1249;22375;-52
2024/03/13 05:58:48;;;;;;;;;;;;;;;1.86;90.35;100310.36;112872;1248;22420;-55
2024/03/13 06:01:22;;;;;;;;;;;;;;;1.89;89.87;100312.36;112936;1249;22364;-56
2024/03/13 06:03:53;;;;;;;;;;;;;;;1.92;88.96;100316.09;112812;1249;23120;-50
2024/03/13 06:06:23;;;;;;;;;;;;;;;1.93;88.12;100315.43;112851;1249;22387;-56
2024/03/13 06:08:51;;;;;;;;;;;;;;;1.96;87.83;100313.64;112785;1249;22410;-57
2024/03/13 06:11:18;;;;;;;;;;;;;;;1.99;87.38;100314.80;112833;1239;23101;-58
2024/03/13 06:13:46;;;;;;;;;;;;;;;2.04;86.73;100314.09;112863;1245;22368;-56
2024/03/13 06:16:17;;;;;;;;;;;;;;;2.09;85.71;100316.48;112789;1249;22369;-54
2024/03/13 06:18:43;;;;;;;;;;;;;;;2.13;85.43;100314.91;112805;1242;22389;-54
2024/03/13 06:21:13;;;;;;;;;;;;;;;2.19;84.54;100319.26;112812;1249;23500;-53
2024/03/13 06:23:53;;;;;;;;;;;;;;;2.24;83.44;100323.55;112788;1249;22397;-53
2024/03/13 06:27:00;;;;;;;;;;;;;;;2.26;81.57;100324.81;112767;1249;22372;-58
2024/03/13 06:43:24;;;;;;;;;;;;;;;2.44;79.05;100347.27;112847;1249;22672;-62
2024/03/13 06:51:12;;;;;;;;;;;;;;;2.42;77.77;100352.54;112752;1249;22383;-58
2024/03/13 06:54:07;;;;;;;;;;;;;;;2.44;77.44;100355.55;112680;1249;23461;-54
2024/03/13 07:06:26;;;;;;;;;;;;;;;2.45;76.24;100366.61;113008;1248;22377;-60
2024/03/13 07:09:22;;;;;;;;;;;;;;;2.45;76.51;100367.13;104970;1245;10139535;-56
2024/03/13 07:14:12;;;;;;;;;;;;;;;2.44;74.99;100372.93;112968;1247;22690;-59
2024/03/13 07:21:48;;;;;;;;;;;;;;;2.28;77.16;100381.00;112804;1249;22948;-56
2024/03/13 07:24:48;;;;;;;;;;;;;;;2.10;79.21;100387.61;112608;1248;23649;-58
2024/03/13 07:28:00;;;;;;;;;;;;;;;1.93;81.17;100386.98;112750;1248;22396;-56
2024/03/13 07:34:45;;;;;;;;;;;;;;;1.57;86.03;100393.40;112857;1249;22481;-59
2024/03/13 07:37:38;;;;;;;;;;;;;;;1.46;87.72;100393.85;112575;1249;23080;-60
2024/03/13 07:44:12;;;;;;;;;;;;;;;1.23;91.11;100398.98;112756;1249;22589;-58
2024/03/13 07:47:14;;;;;;;;;;;;;;;1.17;92.46;100403.39;112827;1249;22404;-58
2024/03/13 07:53:34;;;;;;;;;;;;;;;1.12;95.49;100398.20;112808;1249;22391;-57
2024/03/13 07:56:15;;;;;;;;;;;;;;;1.11;96.33;100395.08;112760;1249;23029;-58
2024/03/13 07:58:50;;;;;;;;;;;;;;;1.11;96.85;100393.71;112474;1249;22832;-58
2024/03/13 08:01:33;;;;;;;;;;;;;;;1.13;98.03;100393.59;112528;1249;22751;-58
2024/03/13 08:04:07;;;;;;;;;;;;;;;1.16;98.98;100391.64;112648;1249;22503;-58
2024/03/13 08:06:44;;;;;;;;;;;;;;;1.20;99.49;100387.17;112634;1249;22325;-58
2024/03/13 08:09:30;;;;;;;;;;;;;;;1.26;99.83;100377.79;112786;1249;23134;-58
2024/03/13 08:16:42;;;;;;;;;;;;;;;1.39;100.00;100369.83;112703;1248;22515;-59
2024/03/13 08:20:12;;;;;;;;;;;;;;;1.37;100.00;100370.63;112876;1249;22427;-58
2024/03/13 08:23:35;;;;;;;;;;;;;;;1.33;100.00;100363.61;112783;1249;22387;-63
2024/03/13 08:26:25;;;;;;;;;;;;;;;1.32;100.00;100359.61;112573;1249;22396;-55
2024/03/13 08:29:39;;;;;;;;;;;;;;;1.36;100.00;100352.20;112736;1249;22409;-51
2024/03/13 08:33:47;;;;;;;;;;;;;;;1.36;100.00;100339.67;112599;1249;23070;-55
2024/03/13 08:36:40;;;;;;;;;;;;;;;1.35;100.00;100336.36;112831;1248;22388;-53
2024/03/13 08:39:34;;;;;;;;;;;;;;;1.37;100.00;100334.54;112553;1249;23043;-51
2024/03/13 08:42:21;;;;;;;;;;;;;;;1.36;100.00;100335.02;112596;1249;22431;-56
2024/03/13 08:45:14;;;;;;;;;;;;;;;1.35;100.00;100331.56;112616;1249;22434;-58
2024/03/13 08:48:14;;;;;;;;;;;;;;;1.38;100.00;100329.41;112669;1249;23058;-57
2024/03/13 08:51:03;;;;;;;;;;;;;;;1.42;100.00;100328.89;112677;1249;22387;-60
2024/03/13 08:53:52;;;;;;;;;;;;;;;1.43;100.00;100326.67;112761;1249;22512;-58
2024/03/13 08:56:42;;;;;;;;;;;;;;;1.43;100.00;100325.65;113013;1249;23076;-55
2024/03/13 08:59:32;;;;;;;;;;;;;;;1.45;100.00;100326.77;112835;1247;23289;-58
2024/03/13 09:11:23;;;;;;;;;;;;;;;1.51;100.00;100308.09;112912;1245;22427;-60
2024/03/13 09:14:20;;;;;;;;;;;;;;;1.55;100.00;100310.63;112671;1248;23502;-59
2024/03/13 09:34:15;;;;;;;;;;;;;;;1.58;100.00;100323.14;112153;1254;22444;-68
2024/03/13 09:36:56;;;;;;;;;;;;;;;1.58;100.00;100317.80;112053;1255;22413;-56
2024/03/13 09:39:37;;;;;;;;;;;;;;;1.58;100.00;100324.16;112048;1255;23625;-59
2024/03/13 09:51:22;;;;;;;;;;;;;;;1.51;100.00;100333.17;112323;1255;22375;-53
2024/03/13 09:54:14;;;;;;;;;;;;;;;1.47;100.00;100330.63;112430;1251;22435;-57
2024/03/13 10:01:30;;;;;;;;;;;;;;;1.49;100.00;100323.31;113923;1237;22484;-56
2024/03/13 10:07:37;;;;;;;;;;;;;;;1.55;100.00;100329.20;112797;1248;22412;-55
2024/03/13 10:10:26;;;;;;;;;;;;;;;1.55;100.00;100329.19;112902;1245;22905;-56
2024/03/13 10:13:00;;;;;;;;;;;;;;;1.51;100.00;100326.15;113119;1245;22417;-55
2024/03/13 10:16:28;;;;;;;;;;;;;;;1.50;100.00;100319.41;112683;1247;22416;-57
2024/03/13 10:19:23;;;;;;;;;;;;;;;1.55;100.00;100320.95;112893;1247;22425;-56
2024/03/13 10:22:10;;;;;;;;;;;;;;;1.58;100.00;100316.75;112729;1247;23715;-57
2024/03/13 10:24:51;;;;;;;;;;;;;;;1.61;100.00;100308.42;112752;1248;22404;-56
2024/03/13 10:27:31;;;;;;;;;;;;;;;1.65;100.00;100309.95;112595;1249;22352;-56
2024/03/13 10:30:51;;;;;;;;;;;;;;;1.69;100.00;100301.33;112633;1249;22426;-55
2024/03/13 10:34:00;;;;;;;;;;;;;;;1.72;100.00;100291.98;112732;1249;23835;-56
2024/03/13 10:36:29;;;;;;;;;;;;;;;1.74;100.00;100291.73;112674;1249;22809;-56
2024/03/13 10:39:02;;;;;;;;;;;;;;;1.78;100.00;100283.77;112651;1249;23172;-56
2024/03/13 10:41:31;;;;;;;;;;;;;;;1.80;100.00;100283.16;112770;1249;22840;-56
2024/03/13 10:44:46;;;;;;;;;;;;;;;1.80;100.00;100278.86;112705;1248;22418;-56
2024/03/13 10:48:32;;;;;;;;;;;;;;;1.82;100.00;100277.71;112858;1249;22442;-56
2024/03/13 10:51:52;;;;;;;;;;;;;;;1.79;100.00;100274.85;112636;1249;22462;-56
2024/03/13 10:55:44;;;;;;;;;;;;;;;1.71;100.00;100270.11;112672;1249;22543;-55
2024/03/13 11:04:15;;;;;;;;;;;;;;;1.64;100.00;100256.61;112854;1249;23087;-55
2024/03/13 11:11:20;;;;;;;;;;;;;;;1.50;100.00;100256.45;112753;1249;22460;-55
2024/03/13 11:14:20;;;;;;;;;;;;;;;1.48;100.00;100252.27;112588;1249;23592;-57
2024/03/13 11:17:14;;;;;;;;;;;;;;;1.47;100.00;100250.52;112668;1248;22442;-56
2024/03/13 11:20:06;;;;;;;;;;;;;;;1.49;100.00;100250.41;112474;1249;22981;-57
2024/03/13 11:22:39;;;;;;;;;;;;;;;1.50;100.00;100247.00;112669;1249;23163;-57
2024/03/13 11:25:18;;;;;;;;;;;;;;;1.51;100.00;100246.20;112498;1249;23218;-56
2024/03/13 11:27:54;;;;;;;;;;;;;;;1.48;100.00;100245.06;112597;1249;22423;-55
2024/03/13 11:30:22;;;;;;;;;;;;;;;1.46;100.00;100251.02;112571;1249;22394;-55
2024/03/13 11:32:49;;;;;;;;;;;;;;;1.46;100.00;100249.80;112433;1249;22847;-56
2024/03/13 11:35:27;;;;;;;;;;;;;;;1.46;100.00;100249.62;112713;1249;22402;-57
2024/03/13 11:38:11;;;;;;;;;;;;;;;1.45;100.00;100255.28;112594;1249;22354;-56
2024/03/13 11:40:47;;;;;;;;;;;;;;;1.42;100.00;100251.90;112674;1249;22487;-58
2024/03/13 11:51:31;;;;;;;;;;;;;;;1.61;100.00;100244.83;113148;1247;22425;-54
2024/03/13 11:54:12;;;;;;;;;;;;;;;1.72;100.00;100238.66;112781;1247;22484;-56
2024/03/13 11:56:51;;;;;;;;;;;;;;;1.80;100.00;100234.48;112738;1248;22395;-56
2024/03/13 11:59:53;;;;;;;;;;;;;;;1.87;100.00;100233.35;112866;1248;22449;-57
2024/03/13 12:02:40;;;;;;;;;;;;;;;1.91;100.00;100233.63;112791;1248;22374;-56
2024/03/13 12:05:33;;;;;;;;;;;;;;;1.96;100.00;100226.58;112962;1248;22400;-56
2024/03/13 12:08:12;;;;;;;;;;;;;;;2.03;100.00;100223.05;112938;1248;22358;-57
2024/03/13 12:10:55;;;;;;;;;;;;;;;2.09;100.00;100215.67;112638;1248;22522;-57
2024/03/13 12:16:54;;;;;;;;;;;;;;;2.12;100.00;100212.84;112927;1245;23253;-56
2024/03/13 12:20:45;;;;;;;;;;;;;;;2.20;100.00;100212.21;112862;1248;22413;-57
2024/03/13 12:23:45;;;;;;;;;;;;;;;2.25;100.00;100213.94;112832;1248;22320;-56
2024/03/13 12:30:58;;;;;;;;;;;;;;;2.30;100.00;100212.04;112862;1248;22403;-57
2024/03/13 12:33:30;;;;;;;;;;;;;;;2.26;100.00;100211.73;112977;1248;22443;-57
2024/03/13 12:41:38;;;;;;;;;;;;;;;2.21;100.00;100205.58;112903;1248;22425;-56
2024/03/13 12:44:22;;;;;;;;;;;;;;;2.26;100.00;100210.20;112983;1248;22369;-56
2024/03/13 12:47:24;;;;;;;;;;;;;;;2.32;100.00;100209.20;112957;1248;23602;-58
2024/03/13 12:50:17;;;;;;;;;;;;;;;2.36;100.00;100206.36;112882;1246;22554;-58
2024/03/13 12:53:44;;;;;;;;;;;;;;;2.30;100.00;100204.14;113063;1248;22291;-57
2024/03/13 12:56:50;;;;;;;;;;;;;;;2.21;100.00;100198.68;112770;1238;23544;-57
2024/03/13 12:59:21;;;;;;;;;;;;;;;2.18;100.00;100205.95;112713;1248;22481;-56
2024/03/13 13:01:49;;;;;;;;;;;;;;;2.16;100.00;100201.42;112726;1248;22489;-57
2024/03/13 13:04:21;;;;;;;;;;;;;;;2.11;100.00;100203.70;112982;1248;23173;-57
2024/03/13 13:06:48;;;;;;;;;;;;;;;2.07;100.00;100201.14;112916;1248;22482;-58
2024/03/13 13:09:18;;;;;;;;;;;;;;;2.07;100.00;100198.20;112728;1248;22384;-57
2024/03/13 13:11:48;;;;;;;;;;;;;;;2.05;100.00;100194.39;112909;1248;23654;-57
2024/03/13 13:14:15;;;;;;;;;;;;;;;2.02;100.00;100194.77;112816;1248;23170;-57
2024/03/13 13:16:44;;;;;;;;;;;;;;;1.99;100.00;100192.62;112730;1248;22397;-57
2024/03/13 13:19:13;;;;;;;;;;;;;;;1.96;100.00;100195.10;112964;1248;22403;-56
2024/03/13 13:21:41;;;;;;;;;;;;;;;1.96;100.00;100193.74;112767;1248;22396;-56
2024/03/13 13:24:12;;;;;;;;;;;;;;;1.98;100.00;100190.73;112838;1248;22383;-55
2024/03/13 13:26:41;;;;;;;;;;;;;;;1.98;100.00;100189.51;112806;1248;22414;-55
2024/03/13 13:29:13;;;;;;;;;;;;;;;1.98;100.00;100187.27;112878;1248;22951;-56
2024/03/13 13:31:43;;;;;;;;;;;;;;;1.99;100.00;100183.01;112931;1247;22851;-56
2024/03/13 13:34:11;;;;;;;;;;;;;;;2.00;100.00;100181.98;112911;1247;22376;-56
2024/03/13 13:36:39;;;;;;;;;;;;;;;2.01;100.00;100178.91;113027;1247;23208;-56
2024/03/13 13:39:07;;;;;;;;;;;;;;;2.00;100.00;100169.10;113067;1247;23274;-56
2024/03/13 13:41:35;;;;;;;;;;;;;;;2.01;100.00;100151.75;112935;1247;23249;-57
2024/03/13 13:44:03;;;;;;;;;;;;;;;2.03;100.00;100148.04;113078;1247;23238;-55
2024/03/13 13:46:35;;;;;;;;;;;;;;;2.07;100.00;100146.61;113108;1247;22464;-56
2024/03/13 13:49:02;;;;;;;;;;;;;;;2.08;100.00;100134.09;112991;1247;22478;-56
2024/03/13 13:51:35;;;;;;;;;;;;;;;2.09;100.00;100126.38;113061;1244;22947;-57
2024/03/13 13:54:03;;;;;;;;;;;;;;;2.12;100.00;100117.50;113102;1247;22432;-57
2024/03/13 13:56:31;;;;;;;;;;;;;;;2.12;100.00;100113.90;113170;1247;22543;-56
2024/03/13 13:59:05;;;;;;;;;;;;;;;2.12;100.00;100110.10;112999;1238;22390;-55
2024/03/13 14:01:39;;;;;;;;;;;;;;;2.12;100.00;100113.89;112961;1247;22570;-55
2024/03/13 14:04:08;;;;;;;;;;;;;;;2.11;100.00;100118.53;113021;1247;22402;-56
2024/03/13 14:06:49;;;;;;;;;;;;;;;2.12;100.00;100123.70;113145;1247;22868;-56
2024/03/13 14:09:19;;;;;;;;;;;;;;;2.10;100.00;100122.96;113179;1247;22357;-56
2024/03/13 14:11:48;;;;;;;;;;;;;;;2.06;100.00;100130.23;113090;1247;22546;-56
2024/03/13 14:14:16;;;;;;;;;;;;;;;2.05;100.00;100132.09;113157;1247;22392;-55
2024/03/13 14:16:45;;;;;;;;;;;;;;;2.07;100.00;100136.79;113039;1247;22415;-56
2024/03/13 14:19:14;;;;;;;;;;;;;;;2.08;100.00;100130.45;113030;1247;23137;-56
2024/03/13 14:21:42;;;;;;;;;;;;;;;2.08;100.00;100115.30;113101;1247;22442;-56
2024/03/13 14:24:10;;;;;;;;;;;;;;;2.06;100.00;100120.59;113164;1247;22427;-55
2024/03/13 14:26:37;;;;;;;;;;;;;;;2.04;100.00;100129.14;113190;1247;23149;-56
2024/03/13 14:29:13;;;;;;;;;;;;;;;2.02;100.00;100125.10;113167;1247;22414;-55
2024/03/13 14:31:42;;;;;;;;;;;;;;;2.01;100.00;100135.55;113083;1247;22478;-55
2024/03/13 14:34:10;;;;;;;;;;;;;;;2.01;100.00;100130.39;113049;1247;22575;-57
2024/03/13 14:36:38;;;;;;;;;;;;;;;2.00;100.00;100138.63;113184;1247;22448;-57
2024/03/13 14:39:13;;;;;;;;;;;;;;;1.99;100.00;100136.73;113228;1247;22384;-57
2024/03/13 14:41:45;;;;;;;;;;;;;;;2.01;100.00;100139.02;113181;1246;22416;-55
2024/03/13 14:44:13;;;;;;;;;;;;;;;2.03;100.00;100146.65;113060;1247;22399;-57
2024/03/13 14:46:41;;;;;;;;;;;;;;;2.05;100.00;100147.76;113184;1247;22442;-55
2024/03/13 14:49:13;;;;;;;;;;;;;;;2.08;100.00;100148.34;113194;1247;22831;-57
2024/03/13 14:51:40;;;;;;;;;;;;;;;2.08;100.00;100150.09;113189;1247;22375;-57
2024/03/13 14:54:11;;;;;;;;;;;;;;;2.06;100.00;100152.08;113202;1247;23139;-56
2024/03/13 14:56:39;;;;;;;;;;;;;;;2.05;100.00;100153.27;113208;1247;23154;-57
2024/03/13 14:59:19;;;;;;;;;;;;;;;2.05;100.00;100152.73;113183;1247;22404;-57
2024/03/13 15:01:59;;;;;;;;;;;;;;;2.05;100.00;100150.34;113148;1247;22391;-57
2024/03/13 15:04:28;;;;;;;;;;;;;;;2.03;100.00;100152.31;113269;1247;22372;-56
2024/03/13 15:06:56;;;;;;;;;;;;;;;2.00;100.00;100146.39;113045;1247;22844;-56
2024/03/13 15:09:24;;;;;;;;;;;;;;;1.99;100.00;100147.04;113213;1247;23123;-57
2024/03/13 15:11:52;;;;;;;;;;;;;;;1.99;100.00;100149.27;113164;1247;23264;-57
2024/03/13 15:14:20;;;;;;;;;;;;;;;1.99;100.00;100145.84;113100;1247;22459;-57
2024/03/13 15:16:50;;;;;;;;;;;;;;;2.01;100.00;100147.78;113178;1247;22417;-57
2024/03/13 15:19:18;;;;;;;;;;;;;;;2.03;100.00;100146.83;113170;1247;22432;-57
